EYE weather

Eagle Creek Airpark
Indianapolis, Indiana, United States

Public forecast

Using degrees Fahrenheit for public forecast. Weather courtesy of forecast.io.

Current aviation weather report (METAR) for Eagle Creek Airpark

Retrieved 2019/10/17 10:53 UTC (38 minutes ago):

KEYE 171053Z AUTO 30005KT 10SM CLR 05/02 A3000 RMK AO2 SLP160 T00500022

Closest aviation forecast (TAF) to Eagle Creek Airpark

Closest forecast is Indianapolis International Airport, 6.8 nm (12.6 km) S. Retrieved 2019/10/17 06:22 UTC (5 hours ago):

TAF KIND 170520Z 1706/1812 31005KT P6SM SCT200 FM172000 31007KT P6SM FEW090 FM172300 VRB04KT P6SM FEW150